sensor_id;sensor_type;location;lat;lon;timestamp;pressure;altitude;pressure_sealevel;temperature;humidity
36234;BME280;43467;50.890;5.982;2023-02-23T00:00:26;99848.06;;;10.61;95.26
36234;BME280;43467;50.890;5.982;2023-02-23T00:02:57;99842.81;;;10.60;95.23
36234;BME280;43467;50.890;5.982;2023-02-23T00:05:29;99841.38;;;10.54;96.30
36234;BME280;43467;50.890;5.982;2023-02-23T00:07:55;99839.66;;;10.53;96.16
36234;BME280;43467;50.890;5.982;2023-02-23T00:10:22;99834.81;;;10.61;96.35
36234;BME280;43467;50.890;5.982;2023-02-23T00:12:58;99841.66;;;10.65;96.33
36234;BME280;43467;50.890;5.982;2023-02-23T00:15:24;99838.72;;;10.71;96.12
36234;BME280;43467;50.890;5.982;2023-02-23T00:17:55;99844.84;;;10.72;95.41
36234;BME280;43467;50.890;5.982;2023-02-23T00:20:22;99841.19;;;10.57;95.55
36234;BME280;43467;50.890;5.982;2023-02-23T00:22:55;99838.25;;;10.63;96.52
36234;BME280;43467;50.890;5.982;2023-02-23T00:25:22;99846.50;;;10.57;96.31
36234;BME280;43467;50.890;5.982;2023-02-23T00:27:49;99835.44;;;10.66;96.05
36234;BME280;43467;50.890;5.982;2023-02-23T00:30:16;99837.16;;;10.67;95.47
36234;BME280;43467;50.890;5.982;2023-02-23T00:32:43;99835.59;;;10.63;94.92
36234;BME280;43467;50.890;5.982;2023-02-23T00:35:09;99833.09;;;10.60;94.78
36234;BME280;43467;50.890;5.982;2023-02-23T00:37:46;99829.53;;;10.61;94.20
36234;BME280;43467;50.890;5.982;2023-02-23T00:40:13;99836.53;;;10.62;94.56
36234;BME280;43467;50.890;5.982;2023-02-23T00:42:41;99833.50;;;10.53;94.10
36234;BME280;43467;50.890;5.982;2023-02-23T00:45:07;99839.41;;;10.58;94.16
36234;BME280;43467;50.890;5.982;2023-02-23T00:47:36;99829.59;;;10.60;93.43
36234;BME280;43467;50.890;5.982;2023-02-23T00:50:02;99835.97;;;10.56;93.11
36234;BME280;43467;50.890;5.982;2023-02-23T00:52:29;99839.63;;;10.70;92.85
36234;BME280;43467;50.890;5.982;2023-02-23T00:54:54;99825.47;;;10.71;92.38
36234;BME280;43467;50.890;5.982;2023-02-23T00:57:20;99840.31;;;10.74;92.52
36234;BME280;43467;50.890;5.982;2023-02-23T00:59:46;99839.22;;;10.78;92.15
36234;BME280;43467;50.890;5.982;2023-02-23T01:02:12;99841.63;;;10.83;91.45
36234;BME280;43467;50.890;5.982;2023-02-23T01:04:37;99839.63;;;10.70;92.20
36234;BME280;43467;50.890;5.982;2023-02-23T01:07:03;99838.59;;;10.73;92.36
36234;BME280;43467;50.890;5.982;2023-02-23T01:09:31;99838.72;;;10.71;92.56
36234;BME280;43467;50.890;5.982;2023-02-23T01:11:57;99836.13;;;10.70;92.56
36234;BME280;43467;50.890;5.982;2023-02-23T01:14:26;99846.47;;;10.75;92.32
36234;BME280;43467;50.890;5.982;2023-02-23T01:16:52;99841.03;;;10.78;92.19
36234;BME280;43467;50.890;5.982;2023-02-23T01:19:18;99839.06;;;10.81;92.23
36234;BME280;43467;50.890;5.982;2023-02-23T01:21:43;99842.84;;;10.93;92.10
36234;BME280;43467;50.890;5.982;2023-02-23T01:24:09;99847.03;;;10.97;91.98
36234;BME280;43467;50.890;5.982;2023-02-23T01:26:41;99847.03;;;10.97;91.48
36234;BME280;43467;50.890;5.982;2023-02-23T01:29:10;99852.00;;;10.87;91.53
36234;BME280;43467;50.890;5.982;2023-02-23T01:31:37;99845.66;;;10.90;92.11
36234;BME280;43467;50.890;5.982;2023-02-23T01:34:04;99841.72;;;10.81;92.58
36234;BME280;43467;50.890;5.982;2023-02-23T01:36:33;99844.47;;;10.80;92.76
36234;BME280;43467;50.890;5.982;2023-02-23T01:38:59;99842.91;;;10.76;92.69
36234;BME280;43467;50.890;5.982;2023-02-23T01:41:27;99843.50;;;10.81;92.41
36234;BME280;43467;50.890;5.982;2023-02-23T01:46:33;99849.59;;;10.83;92.40
36234;BME280;43467;50.890;5.982;2023-02-23T01:48:59;99835.41;;;10.84;91.72
36234;BME280;43467;50.890;5.982;2023-02-23T01:51:28;99840.38;;;10.90;91.89
36234;BME280;43467;50.890;5.982;2023-02-23T01:54:03;99838.44;;;10.76;92.04
36234;BME280;43467;50.890;5.982;2023-02-23T01:56:34;99835.66;;;10.62;92.25
36234;BME280;43467;50.890;5.982;2023-02-23T01:59:04;99839.94;;;10.64;93.24
36234;BME280;43467;50.890;5.982;2023-02-23T02:01:30;99835.22;;;10.54;93.06
36234;BME280;43467;50.890;5.982;2023-02-23T02:04:00;99838.78;;;10.70;93.22
36234;BME280;43467;50.890;5.982;2023-02-23T02:06:26;99836.59;;;10.61;93.27
36234;BME280;43467;50.890;5.982;2023-02-23T02:08:55;99841.03;;;10.60;93.39
36234;BME280;43467;50.890;5.982;2023-02-23T02:11:22;99836.19;;;10.68;93.20
36234;BME280;43467;50.890;5.982;2023-02-23T02:14:00;99830.56;;;10.59;92.89
36234;BME280;43467;50.890;5.982;2023-02-23T02:46:48;99834.75;;;10.46;93.23
36234;BME280;43467;50.890;5.982;2023-02-23T02:49:29;99826.13;;;10.42;93.64
36234;BME280;43467;50.890;5.982;2023-02-23T02:54:31;99826.88;;;10.44;93.66
36234;BME280;43467;50.890;5.982;2023-02-23T02:57:02;99828.06;;;10.39;93.64
36234;BME280;43467;50.890;5.982;2023-02-23T02:59:28;99820.72;;;10.44;93.75
36234;BME280;43467;50.890;5.982;2023-02-23T03:02:18;99824.09;;;10.47;93.54
36234;BME280;43467;50.890;5.982;2023-02-23T03:05:15;99830.50;;;10.43;93.21
36234;BME280;43467;50.890;5.982;2023-02-23T03:11:12;99823.31;;;10.45;93.59
36234;BME280;43467;50.890;5.982;2023-02-23T03:17:34;99820.66;;;10.62;92.94
36234;BME280;43467;50.890;5.982;2023-02-23T03:20:27;99801.84;;;10.51;92.68
36234;BME280;43467;50.890;5.982;2023-02-23T03:29:11;99825.78;;;10.65;92.20
36234;BME280;43467;50.890;5.982;2023-02-23T03:34:56;99826.69;;;10.64;92.51
36234;BME280;43467;50.890;5.982;2023-02-23T03:37:50;99827.66;;;10.63;92.35
36234;BME280;43467;50.890;5.982;2023-02-23T03:40:39;99831.63;;;10.55;92.95
36234;BME280;43467;50.890;5.982;2023-02-23T03:43:31;99837.16;;;10.50;93.42
36234;BME280;43467;50.890;5.982;2023-02-23T03:46:17;99835.50;;;10.48;93.42
36234;BME280;43467;50.890;5.982;2023-02-23T03:49:06;99835.84;;;10.59;93.41
36234;BME280;43467;50.890;5.982;2023-02-23T03:51:58;99833.09;;;10.60;92.73
36234;BME280;43467;50.890;5.982;2023-02-23T03:54:53;99824.41;;;10.58;92.42
36234;BME280;43467;50.890;5.982;2023-02-23T03:57:40;99831.53;;;10.73;92.32
36234;BME280;43467;50.890;5.982;2023-02-23T04:00:29;99832.22;;;10.60;92.33
36234;BME280;43467;50.890;5.982;2023-02-23T04:03:16;99839.47;;;10.56;92.83
36234;BME280;43467;50.890;5.982;2023-02-23T04:06:00;99826.66;;;10.32;93.28
36234;BME280;43467;50.890;5.982;2023-02-23T04:08:46;99835.84;;;10.42;93.82
36234;BME280;43467;50.890;5.982;2023-02-23T04:11:41;99839.03;;;10.48;93.52
36234;BME280;43467;50.890;5.982;2023-02-23T04:14:30;99847.69;;;10.35;94.03
36234;BME280;43467;50.890;5.982;2023-02-23T04:16:57;99844.94;;;10.36;94.30
36234;BME280;43467;50.890;5.982;2023-02-23T04:19:26;99854.38;;;10.42;94.31
36234;BME280;43467;50.890;5.982;2023-02-23T04:21:52;99861.47;;;10.41;94.30
36234;BME280;43467;50.890;5.982;2023-02-23T04:24:18;99845.03;;;10.35;95.08
36234;BME280;43467;50.890;5.982;2023-02-23T04:26:43;99856.84;;;10.45;94.54
36234;BME280;43467;50.890;5.982;2023-02-23T04:29:10;99850.63;;;10.46;94.05
36234;BME280;43467;50.890;5.982;2023-02-23T04:31:36;99859.13;;;10.35;94.52
36234;BME280;43467;50.890;5.982;2023-02-23T04:34:01;99859.03;;;10.37;94.63
36234;BME280;43467;50.890;5.982;2023-02-23T04:36:27;99863.63;;;10.33;95.35
36234;BME280;43467;50.890;5.982;2023-02-23T04:38:52;99861.16;;;10.30;95.25
36234;BME280;43467;50.890;5.982;2023-02-23T04:41:18;99853.22;;;10.30;95.10
36234;BME280;43467;50.890;5.982;2023-02-23T04:43:44;99856.84;;;10.27;95.11
36234;BME280;43467;50.890;5.982;2023-02-23T04:46:09;99841.72;;;10.12;95.68
36234;BME280;43467;50.890;5.982;2023-02-23T04:48:34;99849.13;;;10.06;95.96
36234;BME280;43467;50.890;5.982;2023-02-23T04:51:00;99858.97;;;10.21;95.99
36234;BME280;43467;50.890;5.982;2023-02-23T04:53:25;99864.19;;;10.22;95.87
36234;BME280;43467;50.890;5.982;2023-02-23T04:55:51;99864.41;;;10.18;96.18
36234;BME280;43467;50.890;5.982;2023-02-23T04:58:16;99866.63;;;10.08;96.72
36234;BME280;43467;50.890;5.982;2023-02-23T05:00:42;99869.38;;;10.24;96.12
36234;BME280;43467;50.890;5.982;2023-02-23T05:03:07;99868.28;;;10.28;95.61
36234;BME280;43467;50.890;5.982;2023-02-23T05:05:33;99865.66;;;10.28;96.06
36234;BME280;43467;50.890;5.982;2023-02-23T05:07:58;99872.03;;;10.24;95.51
36234;BME280;43467;50.890;5.982;2023-02-23T05:10:24;99869.22;;;10.27;96.70
36234;BME280;43467;50.890;5.982;2023-02-23T05:12:49;99869.72;;;10.35;95.93
36234;BME280;43467;50.890;5.982;2023-02-23T05:15:14;99865.47;;;10.31;95.37
36234;BME280;43467;50.890;5.982;2023-02-23T05:17:40;99854.44;;;10.23;95.53
36234;BME280;43467;50.890;5.982;2023-02-23T05:20:07;99871.81;;;10.46;94.68
36234;BME280;43467;50.890;5.982;2023-02-23T05:22:32;99860.38;;;10.45;94.33
36234;BME280;43467;50.890;5.982;2023-02-23T05:24:58;99874.75;;;10.57;93.77
36234;BME280;43467;50.890;5.982;2023-02-23T05:27:23;99877.56;;;10.54;93.75
36234;BME280;43467;50.890;5.982;2023-02-23T05:29:48;99871.34;;;10.38;94.77
36234;BME280;43467;50.890;5.982;2023-02-23T05:32:14;99876.81;;;10.35;94.82
36234;BME280;43467;50.890;5.982;2023-02-23T05:34:39;99875.78;;;10.37;94.69
36234;BME280;43467;50.890;5.982;2023-02-23T05:37:05;99880.91;;;10.40;94.51
36234;BME280;43467;50.890;5.982;2023-02-23T05:39:31;99880.69;;;10.45;94.68
36234;BME280;43467;50.890;5.982;2023-02-23T05:41:56;99868.13;;;10.31;94.24
36234;BME280;43467;50.890;5.982;2023-02-23T05:44:22;99877.09;;;10.29;95.09
36234;BME280;43467;50.890;5.982;2023-02-23T05:46:48;99882.84;;;10.19;96.08
36234;BME280;43467;50.890;5.982;2023-02-23T05:49:13;99886.13;;;10.24;96.01
36234;BME280;43467;50.890;5.982;2023-02-23T05:51:39;99881.94;;;10.38;95.13
36234;BME280;43467;50.890;5.982;2023-02-23T05:54:04;99876.69;;;10.36;94.92
36234;BME280;43467;50.890;5.982;2023-02-23T05:56:30;99865.81;;;10.25;94.92
36234;BME280;43467;50.890;5.982;2023-02-23T05:58:57;99879.44;;;10.35;95.04
36234;BME280;43467;50.890;5.982;2023-02-23T06:01:23;99876.56;;;10.39;94.60
36234;BME280;43467;50.890;5.982;2023-02-23T06:03:49;99880.31;;;10.35;94.70
36234;BME280;43467;50.890;5.982;2023-02-23T06:06:16;99879.97;;;10.24;94.93
36234;BME280;43467;50.890;5.982;2023-02-23T06:08:41;99876.00;;;10.33;95.24
36234;BME280;43467;50.890;5.982;2023-02-23T06:11:07;99887.75;;;10.27;95.13
36234;BME280;43467;50.890;5.982;2023-02-23T06:13:32;99880.44;;;10.32;95.01
36234;BME280;43467;50.890;5.982;2023-02-23T06:15:58;99887.00;;;10.42;94.37
36234;BME280;43467;50.890;5.982;2023-02-23T06:18:25;99892.56;;;10.36;94.38
36234;BME280;43467;50.890;5.982;2023-02-23T06:20:50;99894.38;;;10.36;94.44
36234;BME280;43467;50.890;5.982;2023-02-23T06:23:15;99898.34;;;10.44;94.22
36234;BME280;43467;50.890;5.982;2023-02-23T06:25:42;99897.81;;;10.38;94.39
36234;BME280;43467;50.890;5.982;2023-02-23T06:28:08;99902.53;;;10.31;94.49
36234;BME280;43467;50.890;5.982;2023-02-23T06:30:35;99905.50;;;10.25;95.22
36234;BME280;43467;50.890;5.982;2023-02-23T06:33:01;99902.94;;;10.05;96.08
36234;BME280;43467;50.890;5.982;2023-02-23T06:35:26;99911.06;;;10.19;94.93
36234;BME280;43467;50.890;5.982;2023-02-23T06:37:53;99910.94;;;10.22;95.14
36234;BME280;43467;50.890;5.982;2023-02-23T06:40:19;99915.94;;;10.09;95.28
36234;BME280;43467;50.890;5.982;2023-02-23T06:42:44;99923.69;;;9.95;96.65
36234;BME280;43467;50.890;5.982;2023-02-23T06:45:10;99911.25;;;9.78;96.94
36234;BME280;43467;50.890;5.982;2023-02-23T06:47:37;99926.31;;;9.95;97.50
36234;BME280;43467;50.890;5.982;2023-02-23T06:50:04;99921.13;;;10.11;96.76
36234;BME280;43467;50.890;5.982;2023-02-23T06:52:31;99930.38;;;10.21;95.75
36234;BME280;43467;50.890;5.982;2023-02-23T06:54:56;99929.16;;;10.28;94.98
36234;BME280;43467;50.890;5.982;2023-02-23T06:57:21;99935.44;;;10.07;95.47
36234;BME280;43467;50.890;5.982;2023-02-23T06:59:47;99933.88;;;10.03;96.80
36234;BME280;43467;50.890;5.982;2023-02-23T07:02:12;99940.84;;;10.05;96.24
36234;BME280;43467;50.890;5.982;2023-02-23T07:04:38;99941.25;;;10.15;96.25
36234;BME280;43467;50.890;5.982;2023-02-23T07:07:04;99946.13;;;10.05;96.38
36234;BME280;43467;50.890;5.982;2023-02-23T07:09:29;99937.38;;;10.03;96.71
36234;BME280;43467;50.890;5.982;2023-02-23T07:11:55;99945.63;;;10.16;96.46
36234;BME280;43467;50.890;5.982;2023-02-23T07:14:20;99947.09;;;10.03;97.03
36234;BME280;43467;50.890;5.982;2023-02-23T07:16:45;99956.91;;;10.01;97.54
36234;BME280;43467;50.890;5.982;2023-02-23T07:19:12;99947.97;;;10.03;97.10
36234;BME280;43467;50.890;5.982;2023-02-23T07:21:38;99937.38;;;10.03;96.93
36234;BME280;43467;50.890;5.982;2023-02-23T07:24:03;99959.56;;;10.19;95.66
36234;BME280;43467;50.890;5.982;2023-02-23T07:26:31;99964.84;;;10.19;96.12
36234;BME280;43467;50.890;5.982;2023-02-23T07:29:00;99965.81;;;10.18;96.40
36234;BME280;43467;50.890;5.982;2023-02-23T07:31:26;99969.28;;;10.19;96.55
36234;BME280;43467;50.890;5.982;2023-02-23T07:33:52;99974.91;;;10.11;96.85
36234;BME280;43467;50.890;5.982;2023-02-23T07:36:22;99981.06;;;10.12;96.83
36234;BME280;43467;50.890;5.982;2023-02-23T07:38:48;99981.00;;;10.13;97.29
36234;BME280;43467;50.890;5.982;2023-02-23T07:41:14;99971.72;;;10.23;96.79
36234;BME280;43467;50.890;5.982;2023-02-23T07:43:39;99988.88;;;10.34;96.33
36234;BME280;43467;50.890;5.982;2023-02-23T07:46:05;99979.47;;;10.45;95.88
36234;BME280;43467;50.890;5.982;2023-02-23T07:48:31;99985.25;;;10.53;95.39
36234;BME280;43467;50.890;5.982;2023-02-23T07:50:57;99968.88;;;10.45;95.25
36234;BME280;43467;50.890;5.982;2023-02-23T07:53:22;99987.59;;;10.59;94.58
36234;BME280;43467;50.890;5.982;2023-02-23T07:55:55;99988.53;;;10.58;94.08
36234;BME280;43467;50.890;5.982;2023-02-23T07:58:21;99989.28;;;10.43;94.45
36234;BME280;43467;50.890;5.982;2023-02-23T08:00:46;99993.06;;;10.38;95.65
36234;BME280;43467;50.890;5.982;2023-02-23T08:03:12;99981.91;;;10.31;95.71
36234;BME280;43467;50.890;5.982;2023-02-23T08:05:37;99991.72;;;10.29;96.27
36234;BME280;43467;50.890;5.982;2023-02-23T08:08:04;99989.00;;;10.12;96.80
36234;BME280;43467;50.890;5.982;2023-02-23T08:10:30;99990.72;;;10.13;97.57
36234;BME280;43467;50.890;5.982;2023-02-23T08:12:56;100002.75;;;10.20;98.13
36234;BME280;43467;50.890;5.982;2023-02-23T08:15:22;99995.38;;;10.08;97.59
36234;BME280;43467;50.890;5.982;2023-02-23T08:17:47;100007.59;;;10.10;97.65
36234;BME280;43467;50.890;5.982;2023-02-23T08:20:13;100002.44;;;10.07;98.07
36234;BME280;43467;50.890;5.982;2023-02-23T08:22:38;100012.09;;;10.08;98.59
36234;BME280;43467;50.890;5.982;2023-02-23T08:25:04;100025.47;;;10.05;97.84
36234;BME280;43467;50.890;5.982;2023-02-23T08:27:33;100019.16;;;10.08;97.98
36234;BME280;43467;50.890;5.982;2023-02-23T08:29:58;100018.31;;;10.07;97.12
36234;BME280;43467;50.890;5.982;2023-02-23T08:32:24;100023.47;;;10.10;96.92
36234;BME280;43467;50.890;5.982;2023-02-23T08:34:50;100018.31;;;10.07;96.63
36234;BME280;43467;50.890;5.982;2023-02-23T08:37:16;100024.25;;;10.12;96.85
36234;BME280;43467;50.890;5.982;2023-02-23T08:39:41;100033.91;;;10.13;96.15
36234;BME280;43467;50.890;5.982;2023-02-23T08:42:07;100021.03;;;10.06;96.55
36234;BME280;43467;50.890;5.982;2023-02-23T08:44:33;100027.91;;;10.10;96.19
36234;BME280;43467;50.890;5.982;2023-02-23T08:46:58;100026.44;;;10.03;95.47
36234;BME280;43467;50.890;5.982;2023-02-23T08:49:25;100032.09;;;9.95;96.75
36234;BME280;43467;50.890;5.982;2023-02-23T08:51:50;100040.44;;;10.06;96.79
36234;BME280;43467;50.890;5.982;2023-02-23T08:54:16;100042.06;;;10.09;96.78
36234;BME280;43467;50.890;5.982;2023-02-23T08:56:42;100043.13;;;10.05;96.01
36234;BME280;43467;50.890;5.982;2023-02-23T08:59:09;100037.53;;;10.11;96.47
36234;BME280;43467;50.890;5.982;2023-02-23T09:01:35;100044.91;;;10.04;96.01
36234;BME280;43467;50.890;5.982;2023-02-23T09:04:03;100045.56;;;10.09;97.11
36234;BME280;43467;50.890;5.982;2023-02-23T09:06:29;100045.34;;;10.14;96.75
36234;BME280;43467;50.890;5.982;2023-02-23T09:08:55;100037.69;;;10.08;95.90
36234;BME280;43467;50.890;5.982;2023-02-23T09:11:21;100045.41;;;10.12;95.99
36234;BME280;43467;50.890;5.982;2023-02-23T09:13:47;100050.75;;;10.11;95.83
36234;BME280;43467;50.890;5.982;2023-02-23T09:16:12;100045.22;;;9.98;95.68
36234;BME280;43467;50.890;5.982;2023-02-23T09:18:38;100058.13;;;10.04;95.34
36234;BME280;43467;50.890;5.982;2023-02-23T09:21:05;100052.84;;;10.04;95.21
36234;BME280;43467;50.890;5.982;2023-02-23T09:23:33;100060.94;;;10.01;94.77
36234;BME280;43467;50.890;5.982;2023-02-23T09:26:06;100059.06;;;10.03;94.88
36234;BME280;43467;50.890;5.982;2023-02-23T09:28:33;100069.84;;;9.99;94.26
36234;BME280;43467;50.890;5.982;2023-02-23T09:31:11;100059.25;;;9.99;95.10
36234;BME280;43467;50.890;5.982;2023-02-23T09:33:37;100068.78;;;10.03;94.05
36234;BME280;43467;50.890;5.982;2023-02-23T09:36:07;100073.00;;;10.07;93.80
36234;BME280;43467;50.890;5.982;2023-02-23T09:38:35;100072.38;;;10.02;93.09
36234;BME280;43467;50.890;5.982;2023-02-23T09:41:01;100078.66;;;9.99;93.53
36234;BME280;43467;50.890;5.982;2023-02-23T09:43:41;100081.50;;;9.95;93.52
36234;BME280;43467;50.890;5.982;2023-02-23T09:48:40;100086.16;;;10.08;93.32
36234;BME280;43467;50.890;5.982;2023-02-23T09:51:07;100088.75;;;10.10;92.29
36234;BME280;43467;50.890;5.982;2023-02-23T09:53:39;100096.59;;;10.11;91.67
36234;BME280;43467;50.890;5.982;2023-02-23T09:59:01;100096.03;;;10.05;93.43
36234;BME280;43467;50.890;5.982;2023-02-23T10:04:56;100117.09;;;9.88;94.68
36234;BME280;43467;50.890;5.982;2023-02-23T10:21:04;100123.84;;;9.74;94.59
36234;BME280;43467;50.890;5.982;2023-02-23T10:23:51;100122.47;;;9.86;94.36
36234;BME280;43467;50.890;5.982;2023-02-23T10:26:21;100118.88;;;9.87;94.42
36234;BME280;43467;50.890;5.982;2023-02-23T10:28:48;100130.16;;;9.91;95.01
36234;BME280;43467;50.890;5.982;2023-02-23T10:33:41;100132.59;;;9.95;93.48
36234;BME280;43467;50.890;5.982;2023-02-23T10:36:14;100138.91;;;9.93;92.91
36234;BME280;43467;50.890;5.982;2023-02-23T10:38:40;100139.25;;;9.85;93.78
36234;BME280;43467;50.890;5.982;2023-02-23T10:41:06;100129.44;;;9.87;94.27
36234;BME280;43467;50.890;5.982;2023-02-23T10:43:32;100142.09;;;9.80;93.62
36234;BME280;43467;50.890;5.982;2023-02-23T10:45:57;100127.09;;;9.81;93.74
36234;BME280;43467;50.890;5.982;2023-02-23T10:48:26;100131.97;;;9.90;94.17
36234;BME280;43467;50.890;5.982;2023-02-23T10:50:55;100136.25;;;9.93;92.72
36234;BME280;43467;50.890;5.982;2023-02-23T10:53:31;100132.41;;;10.00;92.57
36234;BME280;43467;50.890;5.982;2023-02-23T10:56:06;100126.34;;;9.98;91.29
36234;BME280;43467;50.890;5.982;2023-02-23T10:58:41;100135.19;;;9.97;91.54
36234;BME280;43467;50.890;5.982;2023-02-23T11:01:08;100137.84;;;9.97;92.05
36234;BME280;43467;50.890;5.982;2023-02-23T11:03:46;100139.13;;;10.07;92.05
36234;BME280;43467;50.890;5.982;2023-02-23T11:06:32;100130.63;;;10.00;91.48
36234;BME280;43467;50.890;5.982;2023-02-23T11:08:58;100121.16;;;9.95;91.88
36234;BME280;43467;50.890;5.982;2023-02-23T11:11:25;100135.00;;;10.01;91.21
36234;BME280;43467;50.890;5.982;2023-02-23T11:13:56;100143.91;;;9.99;90.91
36234;BME280;43467;50.890;5.982;2023-02-23T11:16:30;100142.31;;;9.95;90.88
36234;BME280;43467;50.890;5.982;2023-02-23T11:19:03;100136.25;;;9.93;90.79
36234;BME280;43467;50.890;5.982;2023-02-23T11:21:31;100137.25;;;9.90;91.08
36234;BME280;43467;50.890;5.982;2023-02-23T11:26:53;100146.84;;;9.93;90.73
36234;BME280;43467;50.890;5.982;2023-02-23T11:32:11;100147.34;;;10.01;91.57
36234;BME280;43467;50.890;5.982;2023-02-23T11:34:38;100132.59;;;9.95;90.14
36234;BME280;43467;50.890;5.982;2023-02-23T11:37:25;100148.13;;;10.03;90.65
36234;BME280;43467;50.890;5.982;2023-02-23T11:40:00;100142.94;;;10.01;90.76
36234;BME280;43467;50.890;5.982;2023-02-23T11:42:30;100137.19;;;9.92;91.17
36234;BME280;43467;50.890;5.982;2023-02-23T11:45:04;100135.44;;;9.91;90.20
36234;BME280;43467;50.890;5.982;2023-02-23T11:47:38;100135.25;;;9.95;90.22
36234;BME280;43467;50.890;5.982;2023-02-23T11:50:05;100132.44;;;9.79;89.69
36234;BME280;43467;50.890;5.982;2023-02-23T11:52:31;100133.44;;;9.77;90.18
36234;BME280;43467;50.890;5.982;2023-02-23T11:54:58;100130.78;;;9.77;90.62
36234;BME280;43467;50.890;5.982;2023-02-23T11:57:29;100126.28;;;9.79;90.97
36234;BME280;43467;50.890;5.982;2023-02-23T11:59:58;100113.00;;;9.80;90.37
36234;BME280;43467;50.890;5.982;2023-02-23T12:02:27;100122.88;;;9.96;90.28
36234;BME280;43467;50.890;5.982;2023-02-23T12:05:23;100131.28;;;10.05;90.34
36234;BME280;43467;50.890;5.982;2023-02-23T12:10:33;100127.19;;;10.18;88.57
36234;BME280;43467;50.890;5.982;2023-02-23T12:13:09;100121.59;;;10.24;88.46
36234;BME280;43467;50.890;5.982;2023-02-23T12:15:59;100119.97;;;10.41;89.54
36234;BME280;43467;50.890;5.982;2023-02-23T12:19:03;100116.03;;;10.49;88.13
36234;BME280;43467;50.890;5.982;2023-02-23T12:27:43;100112.94;;;10.58;83.91
36234;BME280;43467;50.890;5.982;2023-02-23T12:33:28;100105.78;;;10.60;85.07
36234;BME280;43467;50.890;5.982;2023-02-23T12:38:47;100115.88;;;10.71;84.22
36234;BME280;43467;50.890;5.982;2023-02-23T12:41:29;100115.44;;;10.61;84.31
36234;BME280;43467;50.890;5.982;2023-02-23T12:44:00;100114.75;;;10.58;83.12
36234;BME280;43467;50.890;5.982;2023-02-23T12:46:29;100119.31;;;10.54;83.38
36234;BME280;43467;50.890;5.982;2023-02-23T12:52:28;100109.50;;;10.56;82.39
36234;BME280;43467;50.890;5.982;2023-02-23T12:54:23;100114.03;;;10.54;82.16
36234;BME280;43467;50.890;5.982;2023-02-23T12:57:10;100106.63;;;10.61;81.93
36234;BME280;43467;50.890;5.982;2023-02-23T13:00:21;100096.63;;;10.67;81.76
36234;BME280;43467;50.890;5.982;2023-02-23T13:03:22;100108.53;;;10.76;81.63
36234;BME280;43467;50.890;5.982;2023-02-23T13:11:42;100102.63;;;10.71;80.52
36234;BME280;43467;50.890;5.982;2023-02-23T13:16:45;100110.59;;;10.88;79.31
36234;BME280;43467;50.890;5.982;2023-02-23T13:19:19;100112.97;;;10.94;78.33
36234;BME280;43467;50.890;5.982;2023-02-23T13:24:53;100115.22;;;11.02;78.22
36234;BME280;43467;50.890;5.982;2023-02-23T13:27:29;100112.28;;;11.08;77.90
36234;BME280;43467;50.890;5.982;2023-02-23T13:29:58;100099.81;;;11.10;77.92
36234;BME280;43467;50.890;5.982;2023-02-23T13:32:26;100106.28;;;11.22;78.95
36234;BME280;43467;50.890;5.982;2023-02-23T13:35:17;100110.59;;;11.24;77.64
36234;BME280;43467;50.890;5.982;2023-02-23T13:37:51;100107.72;;;11.29;77.78
36234;BME280;43467;50.890;5.982;2023-02-23T13:40:39;100103.41;;;11.26;77.36
36234;BME280;43467;50.890;5.982;2023-02-23T13:43:22;100107.63;;;11.30;77.66
36234;BME280;43467;50.890;5.982;2023-02-23T13:48:56;100101.38;;;11.14;77.97
36234;BME280;43467;50.890;5.982;2023-02-23T13:56:49;100107.47;;;11.16;76.32
36234;BME280;43467;50.890;5.982;2023-02-23T13:59:20;100111.34;;;11.09;76.33
36234;BME280;43467;50.890;5.982;2023-02-23T14:01:49;100109.94;;;11.02;76.63
36234;BME280;43467;50.890;5.982;2023-02-23T14:04:25;100112.91;;;10.96;77.18
36234;BME280;43467;50.890;5.982;2023-02-23T14:06:52;100111.22;;;10.93;77.65
36234;BME280;43467;50.890;5.982;2023-02-23T14:09:46;100118.41;;;10.91;77.96
36234;BME280;43467;50.890;5.982;2023-02-23T14:12:16;100115.75;;;10.91;77.59
36234;BME280;43467;50.890;5.982;2023-02-23T14:14:47;100124.78;;;10.87;78.22
36234;BME280;43467;50.890;5.982;2023-02-23T14:22:35;100119.44;;;10.70;78.22
36234;BME280;43467;50.890;5.982;2023-02-23T14:28:21;100126.47;;;10.71;78.08
36234;BME280;43467;50.890;5.982;2023-02-23T14:30:52;100126.38;;;10.72;78.16
36234;BME280;43467;50.890;5.982;2023-02-23T14:38:50;100123.03;;;10.69;79.06
36234;BME280;43467;50.890;5.982;2023-02-23T14:41:52;100126.69;;;10.66;78.70
36234;BME280;43467;50.890;5.982;2023-02-23T14:44:27;100122.09;;;10.70;79.21
36234;BME280;43467;50.890;5.982;2023-02-23T14:49:27;100128.25;;;10.70;79.11
36234;BME280;43467;50.890;5.982;2023-02-23T14:51:57;100126.47;;;10.71;78.31
36234;BME280;43467;50.890;5.982;2023-02-23T14:57:00;100134.78;;;10.63;78.52
36234;BME280;43467;50.890;5.982;2023-02-23T14:59:38;100136.41;;;10.66;79.12
36234;BME280;43467;50.890;5.982;2023-02-23T15:02:24;100135.59;;;10.64;78.84
36234;BME280;43467;50.890;5.982;2023-02-23T15:04:50;100136.56;;;10.63;79.33
36234;BME280;43467;50.890;5.982;2023-02-23T15:09:51;100136.63;;;10.61;79.01
36234;BME280;43467;50.890;5.982;2023-02-23T15:12:20;100136.19;;;10.52;78.40
36234;BME280;43467;50.890;5.982;2023-02-23T15:14:48;100142.84;;;10.42;79.06
36234;BME280;43467;50.890;5.982;2023-02-23T15:17:21;100137.63;;;10.40;78.92
36234;BME280;43467;50.890;5.982;2023-02-23T15:19:53;100148.00;;;10.45;78.61
36234;BME280;43467;50.890;5.982;2023-02-23T15:22:29;100153.09;;;10.31;78.58
36234;BME280;43467;50.890;5.982;2023-02-23T15:24:58;100143.00;;;10.39;78.54
36234;BME280;43467;50.890;5.982;2023-02-23T15:27:41;100145.19;;;10.48;78.70
36234;BME280;43467;50.890;5.982;2023-02-23T15:32:43;100150.94;;;10.57;78.45
36234;BME280;43467;50.890;5.982;2023-02-23T15:35:11;100142.84;;;10.60;78.07
36234;BME280;43467;50.890;5.982;2023-02-23T15:37:48;100151.59;;;10.62;77.63